Time;durP1;ratioP1;P1;durP2;ratioP2;P2;SDS_P1;SDS_P2;PMS_P1;PMS_P2;Temp;Humidity;BMP_temperature;BMP_pressure;BME280_temperature;BME280_humidity;BME280_pressure;Samples;Min_cycle;Max_cycle;Signal;HPM_P1;HPM_P2
2021/08/13 00:01:39;;;;;;;16.47;12.80;;;;;;;;;;760418;181;917933;-66
2021/08/13 00:04:04;;;;;;;16.10;12.70;;;;;;;;;;754009;184;918965;-65
2021/08/13 00:06:30;;;;;;;15.00;13.40;;;;;;;;;;754128;184;919630;-66
2021/08/13 00:08:56;;;;;;;20.60;14.73;;;;;;;;;;759692;184;918739;-66
2021/08/13 00:11:22;;;;;;;14.33;12.60;;;;;;;;;;755047;182;919158;-66
2021/08/13 00:13:48;;;;;;;15.07;13.05;;;;;;;;;;753243;184;1186327;-67
2021/08/13 00:16:14;;;;;;;18.57;14.40;;;;;;;;;;758690;184;918429;-67
2021/08/13 00:18:40;;;;;;;17.87;14.50;;;;;;;;;;753803;184;918845;-65
2021/08/13 00:21:05;;;;;;;17.67;13.30;;;;;;;;;;754044;184;919476;-66
2021/08/13 00:23:31;;;;;;;21.33;14.40;;;;;;;;;;753558;184;918684;-65
2021/08/13 00:25:57;;;;;;;16.27;13.80;;;;;;;;;;760608;184;918336;-65
2021/08/13 00:28:23;;;;;;;16.10;12.80;;;;;;;;;;756397;183;923066;-65
2021/08/13 00:30:49;;;;;;;23.30;14.67;;;;;;;;;;756032;183;918898;-66
2021/08/13 00:33:15;;;;;;;14.50;12.10;;;;;;;;;;761116;183;918282;-66
2021/08/13 00:35:40;;;;;;;16.63;14.57;;;;;;;;;;755131;183;934131;-66
2021/08/13 00:38:06;;;;;;;15.93;13.43;;;;;;;;;;756008;182;911830;-66
2021/08/13 00:40:32;;;;;;;16.00;12.53;;;;;;;;;;759243;183;918985;-66
2021/08/13 00:42:58;;;;;;;16.43;12.50;;;;;;;;;;753683;183;920807;-66
2021/08/13 00:45:24;;;;;;;20.20;12.73;;;;;;;;;;756465;183;914697;-65
2021/08/13 00:47:50;;;;;;;18.47;13.13;;;;;;;;;;755673;183;919357;-66
2021/08/13 00:50:16;;;;;;;17.37;12.87;;;;;;;;;;759392;182;913958;-66
2021/08/13 00:52:41;;;;;;;18.90;14.70;;;;;;;;;;755084;181;915707;-65
2021/08/13 00:55:08;;;;;;;17.20;13.38;;;;;;;;;;752377;183;967054;-65
2021/08/13 00:57:33;;;;;;;17.50;12.37;;;;;;;;;;760883;183;919526;-66
2021/08/13 00:59:59;;;;;;;15.57;12.90;;;;;;;;;;757487;181;934609;-65
2021/08/13 01:02:25;;;;;;;13.07;11.50;;;;;;;;;;755991;183;920067;-65
2021/08/13 01:04:51;;;;;;;15.23;13.63;;;;;;;;;;759047;184;918817;-66
2021/08/13 01:07:17;;;;;;;12.73;10.90;;;;;;;;;;754037;184;1020181;-65
2021/08/13 01:09:43;;;;;;;22.62;12.45;;;;;;;;;;756194;184;920400;-66
2021/08/13 01:12:26;;;;;;;15.10;12.18;;;;;;;;;;755962;184;918854;-63
2021/08/13 01:14:57;;;;;;;13.73;12.37;;;;;;;;;;749292;184;918697;-66
2021/08/13 01:17:23;;;;;;;17.47;12.23;;;;;;;;;;762723;182;919543;-67
2021/08/13 01:20:05;;;;;;;13.93;11.60;;;;;;;;;;752064;181;980617;-67
2021/08/13 01:22:37;;;;;;;14.63;12.80;;;;;;;;;;756265;184;918127;-66
2021/08/13 01:25:03;;;;;;;17.07;12.00;;;;;;;;;;751812;184;919028;-66
2021/08/13 01:27:30;;;;;;;14.40;11.90;;;;;;;;;;753747;184;919857;-65
2021/08/13 01:29:58;;;;;;;15.77;11.70;;;;;;;;;;761109;183;918961;-67
2021/08/13 01:32:27;;;;;;;16.20;12.40;;;;;;;;;;754567;184;920219;-68
2021/08/13 01:34:53;;;;;;;15.17;11.13;;;;;;;;;;752427;184;952090;-67
2021/08/13 01:37:19;;;;;;;13.73;11.90;;;;;;;;;;758725;184;919137;-67
2021/08/13 01:39:44;;;;;;;17.10;10.90;;;;;;;;;;757409;184;918510;-67
2021/08/13 01:42:10;;;;;;;15.03;11.77;;;;;;;;;;756228;183;918855;-67
2021/08/13 01:44:36;;;;;;;16.52;12.20;;;;;;;;;;755754;183;920853;-67
2021/08/13 01:47:02;;;;;;;15.73;12.10;;;;;;;;;;752623;183;920369;-66
2021/08/13 01:49:30;;;;;;;15.23;12.40;;;;;;;;;;751721;184;919852;-67
2021/08/13 01:51:54;;;;;;;16.03;11.80;;;;;;;;;;754028;184;919096;-67
2021/08/13 01:54:20;;;;;;;16.43;12.90;;;;;;;;;;761260;182;918693;-67
2021/08/13 01:56:46;;;;;;;15.87;12.00;;;;;;;;;;755731;183;918751;-66
2021/08/13 01:59:11;;;;;;;14.03;11.43;;;;;;;;;;754570;183;919276;-67
2021/08/13 02:01:37;;;;;;;16.50;13.43;;;;;;;;;;760778;183;917937;-66
2021/08/13 02:04:03;;;;;;;14.87;13.27;;;;;;;;;;755734;183;919414;-66
2021/08/13 02:06:29;;;;;;;13.37;11.57;;;;;;;;;;754420;182;990532;-66
2021/08/13 02:08:55;;;;;;;17.70;12.80;;;;;;;;;;758317;183;916456;-66
2021/08/13 02:11:21;;;;;;;13.70;11.30;;;;;;;;;;753779;183;920822;-67
2021/08/13 02:13:47;;;;;;;16.10;11.60;;;;;;;;;;753712;183;919432;-66
2021/08/13 02:16:12;;;;;;;21.43;13.33;;;;;;;;;;753416;184;919508;-67
2021/08/13 02:18:38;;;;;;;18.60;12.17;;;;;;;;;;759496;184;918600;-66
2021/08/13 02:21:04;;;;;;;16.10;11.30;;;;;;;;;;753685;184;919503;-66
2021/08/13 02:23:30;;;;;;;13.97;11.90;;;;;;;;;;754838;183;918595;-67
2021/08/13 02:25:56;;;;;;;14.80;13.30;;;;;;;;;;758736;184;918490;-67
2021/08/13 02:28:22;;;;;;;13.83;12.43;;;;;;;;;;754402;182;918779;-67
2021/08/13 02:30:48;;;;;;;13.17;11.87;;;;;;;;;;754175;184;919174;-67
2021/08/13 02:33:14;;;;;;;14.30;12.57;;;;;;;;;;760338;184;917617;-66
2021/08/13 02:35:39;;;;;;;19.20;12.30;;;;;;;;;;754101;184;1127314;-67
2021/08/13 02:38:05;;;;;;;13.47;11.00;;;;;;;;;;753600;184;917766;-66
2021/08/13 02:40:31;;;;;;;16.83;11.67;;;;;;;;;;753235;183;918990;-66
2021/08/13 02:43:00;;;;;;;15.50;12.30;;;;;;;;;;748833;185;920998;-67
2021/08/13 02:45:26;;;;;;;15.30;12.53;;;;;;;;;;754149;184;919146;-67
2021/08/13 02:47:54;;;;;;;14.50;12.97;;;;;;;;;;753604;184;915695;-67
2021/08/13 02:50:17;;;;;;;16.13;13.90;;;;;;;;;;753422;184;915350;-67
2021/08/13 02:52:43;;;;;;;15.17;12.53;;;;;;;;;;756217;183;929047;-66
2021/08/13 02:55:09;;;;;;;19.30;13.30;;;;;;;;;;756259;182;918836;-68
2021/08/13 02:57:37;;;;;;;14.30;12.07;;;;;;;;;;756962;183;918232;-67
2021/08/13 03:00:02;;;;;;;14.63;13.13;;;;;;;;;;754149;183;919022;-67
2021/08/13 03:02:27;;;;;;;22.90;12.30;;;;;;;;;;754464;183;920046;-66
2021/08/13 03:04:53;;;;;;;16.50;13.03;;;;;;;;;;753691;183;918948;-66
2021/08/13 03:07:19;;;;;;;14.37;12.87;;;;;;;;;;763348;183;922895;-67
2021/08/13 03:09:45;;;;;;;16.63;11.90;;;;;;;;;;756131;183;919529;-67
2021/08/13 03:12:11;;;;;;;17.10;12.45;;;;;;;;;;753754;184;987168;-68
2021/08/13 03:14:36;;;;;;;17.30;13.03;;;;;;;;;;760446;184;915696;-67
2021/08/13 03:17:02;;;;;;;14.27;11.80;;;;;;;;;;755279;184;921248;-67
2021/08/13 03:19:28;;;;;;;18.98;13.52;;;;;;;;;;755485;183;918876;-66
2021/08/13 03:21:54;;;;;;;18.77;11.60;;;;;;;;;;758886;183;922085;-66
2021/08/13 03:24:20;;;;;;;16.10;12.32;;;;;;;;;;755165;183;919656;-67
2021/08/13 03:26:46;;;;;;;15.33;13.00;;;;;;;;;;751696;184;919169;-67
2021/08/13 03:29:12;;;;;;;28.97;15.43;;;;;;;;;;756709;184;918531;-67
2021/08/13 03:31:38;;;;;;;16.80;12.40;;;;;;;;;;747400;184;919158;-67
2021/08/13 03:34:03;;;;;;;15.30;12.87;;;;;;;;;;753720;184;919213;-67
2021/08/13 03:36:29;;;;;;;17.62;11.90;;;;;;;;;;754076;184;918926;-67
2021/08/13 03:38:55;;;;;;;13.50;12.10;;;;;;;;;;761074;184;919385;-67
2021/08/13 03:41:21;;;;;;;14.33;11.70;;;;;;;;;;756323;184;920116;-68
2021/08/13 03:43:47;;;;;;;18.57;12.90;;;;;;;;;;756012;184;919430;-67
2021/08/13 03:46:13;;;;;;;19.20;14.20;;;;;;;;;;759231;184;918790;-67
2021/08/13 03:48:38;;;;;;;15.13;12.30;;;;;;;;;;755055;182;917249;-67
2021/08/13 03:51:04;;;;;;;21.57;13.00;;;;;;;;;;754176;182;919136;-67
2021/08/13 03:53:31;;;;;;;13.60;11.80;;;;;;;;;;759842;184;919273;-67
2021/08/13 03:55:57;;;;;;;14.50;11.90;;;;;;;;;;762953;182;1020425;-67
2021/08/13 03:58:23;;;;;;;17.43;12.30;;;;;;;;;;753704;184;919494;-67
2021/08/13 04:00:48;;;;;;;14.37;11.67;;;;;;;;;;755806;184;919677;-67
2021/08/13 04:03:14;;;;;;;22.23;12.20;;;;;;;;;;763096;182;919352;-67
2021/08/13 04:05:40;;;;;;;15.23;11.83;;;;;;;;;;756340;184;918405;-66
2021/08/13 04:08:06;;;;;;;14.00;12.50;;;;;;;;;;756267;181;918824;-66
2021/08/13 04:10:32;;;;;;;11.63;10.43;;;;;;;;;;760204;184;918141;-65
2021/08/13 04:12:58;;;;;;;17.60;12.27;;;;;;;;;;754974;184;919515;-66
2021/08/13 04:15:23;;;;;;;16.83;14.10;;;;;;;;;;755426;183;919105;-65
2021/08/13 04:17:49;;;;;;;13.90;12.40;;;;;;;;;;759358;184;982786;-66
2021/08/13 04:20:15;;;;;;;15.47;12.27;;;;;;;;;;754685;184;919735;-66
2021/08/13 04:22:41;;;;;;;15.17;12.20;;;;;;;;;;753210;184;919631;-66
2021/08/13 04:25:07;;;;;;;19.90;11.57;;;;;;;;;;753848;184;919195;-65
2021/08/13 04:27:33;;;;;;;24.45;12.30;;;;;;;;;;759696;184;919087;-65
2021/08/13 04:29:59;;;;;;;21.23;12.87;;;;;;;;;;754963;184;916426;-65
2021/08/13 04:32:25;;;;;;;18.83;13.07;;;;;;;;;;755575;183;915604;-65
2021/08/13 04:34:51;;;;;;;18.27;12.70;;;;;;;;;;759328;184;915727;-65
2021/08/13 04:37:16;;;;;;;12.93;10.90;;;;;;;;;;755227;184;915870;-65
2021/08/13 04:39:42;;;;;;;15.18;11.93;;;;;;;;;;753490;184;916433;-65
2021/08/13 04:42:08;;;;;;;15.37;12.30;;;;;;;;;;758773;184;915878;-65
2021/08/13 04:44:34;;;;;;;18.50;12.10;;;;;;;;;;752919;184;916204;-65
2021/08/13 04:47:00;;;;;;;13.10;11.20;;;;;;;;;;752483;184;921572;-65
2021/08/13 04:49:26;;;;;;;13.40;11.70;;;;;;;;;;753920;184;927804;-66
2021/08/13 04:51:51;;;;;;;14.73;11.88;;;;;;;;;;763778;182;915492;-65
2021/08/13 04:54:17;;;;;;;19.10;12.73;;;;;;;;;;752997;184;919112;-65
2021/08/13 04:56:43;;;;;;;17.10;11.50;;;;;;;;;;753204;184;914148;-65
2021/08/13 04:59:09;;;;;;;13.87;11.37;;;;;;;;;;759510;184;918850;-66
2021/08/13 05:01:35;;;;;;;13.60;11.83;;;;;;;;;;755421;181;919289;-65
2021/08/13 05:04:01;;;;;;;14.98;11.88;;;;;;;;;;754038;184;1009383;-66
2021/08/13 05:06:27;;;;;;;13.63;12.13;;;;;;;;;;759406;184;918070;-64
2021/08/13 05:08:52;;;;;;;12.63;11.17;;;;;;;;;;754202;184;919103;-66
2021/08/13 05:11:18;;;;;;;12.50;11.20;;;;;;;;;;754368;184;928175;-65
2021/08/13 05:13:44;;;;;;;14.67;13.13;;;;;;;;;;760082;181;918083;-66
2021/08/13 05:16:10;;;;;;;14.63;12.07;;;;;;;;;;754793;184;919464;-66
2021/08/13 05:18:36;;;;;;;17.40;10.85;;;;;;;;;;754397;183;919432;-65
2021/08/13 05:21:02;;;;;;;12.50;11.20;;;;;;;;;;754507;184;918836;-65
2021/08/13 05:23:27;;;;;;;13.73;10.97;;;;;;;;;;760359;184;921371;-66
2021/08/13 05:25:53;;;;;;;20.20;10.80;;;;;;;;;;755034;183;918481;-65
2021/08/13 05:28:19;;;;;;;12.93;11.07;;;;;;;;;;754668;183;919361;-66
2021/08/13 05:30:45;;;;;;;14.20;10.60;;;;;;;;;;761623;183;919267;-66
2021/08/13 05:33:11;;;;;;;16.17;11.40;;;;;;;;;;751274;183;1985037;-65
2021/08/13 05:35:37;;;;;;;13.63;11.80;;;;;;;;;;756009;183;919442;-66
2021/08/13 05:38:03;;;;;;;16.73;11.12;;;;;;;;;;759195;183;919895;-66
2021/08/13 05:40:29;;;;;;;13.93;10.83;;;;;;;;;;753521;184;919269;-66
2021/08/13 05:42:56;;;;;;;19.77;11.50;;;;;;;;;;753379;183;920135;-65
2021/08/13 05:45:20;;;;;;;14.53;10.50;;;;;;;;;;755040;183;918281;-66
2021/08/13 05:47:46;;;;;;;11.47;10.27;;;;;;;;;;755349;181;914270;-67
2021/08/13 05:50:15;;;;;;;16.80;11.47;;;;;;;;;;753578;183;921135;-66
2021/08/13 05:52:38;;;;;;;13.20;11.10;;;;;;;;;;752146;184;1019461;-66
2021/08/13 05:55:04;;;;;;;15.37;10.07;;;;;;;;;;761189;181;918619;-66
2021/08/13 05:57:30;;;;;;;17.17;10.63;;;;;;;;;;755596;181;916969;-66
2021/08/13 05:59:55;;;;;;;13.20;10.70;;;;;;;;;;753900;184;919561;-66
2021/08/13 06:02:21;;;;;;;11.23;10.13;;;;;;;;;;757606;184;920267;-66
2021/08/13 06:04:47;;;;;;;17.23;11.25;;;;;;;;;;753684;182;920270;-66
2021/08/13 06:07:13;;;;;;;14.97;9.87;;;;;;;;;;755414;184;911332;-66
2021/08/13 06:09:39;;;;;;;15.05;10.45;;;;;;;;;;758351;184;913189;-65
2021/08/13 06:12:06;;;;;;;11.10;9.70;;;;;;;;;;761960;183;910800;-65
2021/08/13 06:14:32;;;;;;;13.00;10.83;;;;;;;;;;752607;184;910311;-66
2021/08/13 06:16:58;;;;;;;12.20;9.90;;;;;;;;;;753210;184;914330;-67
2021/08/13 06:19:23;;;;;;;12.63;10.47;;;;;;;;;;761883;184;916266;-65
2021/08/13 06:21:49;;;;;;;12.33;9.33;;;;;;;;;;755206;182;965698;-65
2021/08/13 06:24:15;;;;;;;13.27;9.83;;;;;;;;;;756111;181;912059;-66
2021/08/13 06:26:41;;;;;;;9.93;8.90;;;;;;;;;;762293;184;918731;-65
2021/08/13 06:29:07;;;;;;;12.90;9.80;;;;;;;;;;756459;183;918624;-66
2021/08/13 06:31:32;;;;;;;13.00;10.07;;;;;;;;;;755974;183;919272;-66
2021/08/13 06:33:58;;;;;;;11.43;9.93;;;;;;;;;;760371;181;907551;-65
2021/08/13 06:36:24;;;;;;;10.87;9.20;;;;;;;;;;754139;182;918356;-68
2021/08/13 06:38:50;;;;;;;13.77;9.70;;;;;;;;;;754804;183;918912;-65
2021/08/13 06:41:16;;;;;;;16.07;9.80;;;;;;;;;;755820;183;919868;-67
2021/08/13 06:43:42;;;;;;;9.63;8.27;;;;;;;;;;758302;184;919493;-66
2021/08/13 06:46:07;;;;;;;11.10;8.13;;;;;;;;;;755288;184;946644;-65
2021/08/13 06:48:33;;;;;;;11.63;8.30;;;;;;;;;;755270;181;918639;-66
2021/08/13 06:50:59;;;;;;;20.13;8.67;;;;;;;;;;759970;183;919172;-67
2021/08/13 06:53:25;;;;;;;9.50;8.10;;;;;;;;;;755408;184;919722;-65
2021/08/13 06:55:51;;;;;;;14.77;9.40;;;;;;;;;;754310;183;927897;-66
2021/08/13 06:58:17;;;;;;;8.70;7.47;;;;;;;;;;759239;183;918602;-66
2021/08/13 07:00:43;;;;;;;11.47;8.97;;;;;;;;;;752191;183;919272;-66
2021/08/13 07:03:08;;;;;;;9.67;7.23;;;;;;;;;;754308;184;919749;-67
2021/08/13 07:05:34;;;;;;;8.83;7.93;;;;;;;;;;753439;182;918748;-66
2021/08/13 07:08:09;;;;;;;17.50;8.90;;;;;;;;;;754121;184;919631;-67
2021/08/13 07:10:35;;;;;;;13.50;7.70;;;;;;;;;;753523;182;918584;-68
2021/08/13 07:13:01;;;;;;;10.03;8.00;;;;;;;;;;754079;184;919263;-67
2021/08/13 07:15:27;;;;;;;18.07;13.17;;;;;;;;;;759205;184;918602;-67
2021/08/13 07:17:52;;;;;;;9.40;8.03;;;;;;;;;;754717;184;918668;-68
2021/08/13 07:20:18;;;;;;;116.10;70.03;;;;;;;;;;754862;181;919475;-67
2021/08/13 07:22:44;;;;;;;127.37;76.33;;;;;;;;;;754444;184;918812;-67
2021/08/13 07:25:10;;;;;;;17.30;12.57;;;;;;;;;;760836;184;919756;-67
2021/08/13 07:27:36;;;;;;;9.77;8.03;;;;;;;;;;754469;184;918704;-67
2021/08/13 07:30:02;;;;;;;11.40;8.13;;;;;;;;;;752002;184;918440;-68
2021/08/13 07:32:28;;;;;;;10.68;7.40;;;;;;;;;;758566;184;919335;-68
2021/08/13 07:34:53;;;;;;;9.33;7.90;;;;;;;;;;753346;184;919232;-68
2021/08/13 07:37:19;;;;;;;10.07;7.50;;;;;;;;;;755150;183;919264;-67
2021/08/13 07:39:45;;;;;;;11.47;7.70;;;;;;;;;;760521;184;919037;-67
2021/08/13 07:42:11;;;;;;;9.20;8.23;;;;;;;;;;755814;183;926962;-67
2021/08/13 07:44:37;;;;;;;16.97;10.90;;;;;;;;;;758693;183;917451;-67
2021/08/13 07:47:03;;;;;;;33.00;21.10;;;;;;;;;;756169;183;918212;-68
2021/08/13 07:49:29;;;;;;;26.60;18.67;;;;;;;;;;748394;183;918936;-68
2021/08/13 07:51:54;;;;;;;25.73;18.27;;;;;;;;;;754171;183;919047;-69
2021/08/13 07:54:20;;;;;;;32.43;21.50;;;;;;;;;;753291;183;918944;-67
2021/08/13 07:56:46;;;;;;;24.77;17.57;;;;;;;;;;760252;183;918934;-66
2021/08/13 07:59:12;;;;;;;28.00;20.93;;;;;;;;;;754263;181;1010858;-67
2021/08/13 08:01:38;;;;;;;18.33;14.83;;;;;;;;;;756272;181;925553;-66
2021/08/13 08:04:04;;;;;;;11.97;10.07;;;;;;;;;;759588;184;925049;-66
2021/08/13 08:06:31;;;;;;;9.67;7.50;;;;;;;;;;756510;184;920859;-66
2021/08/13 08:08:55;;;;;;;11.20;6.45;;;;;;;;;;755213;181;919584;-68
2021/08/13 08:11:21;;;;;;;8.50;5.73;;;;;;;;;;758802;184;918486;-66
2021/08/13 08:13:47;;;;;;;9.47;6.83;;;;;;;;;;753461;184;920118;-67
2021/08/13 08:16:13;;;;;;;8.87;6.87;;;;;;;;;;753487;184;918552;-68
2021/08/13 08:18:39;;;;;;;6.87;5.97;;;;;;;;;;753246;184;918283;-67
2021/08/13 08:21:06;;;;;;;13.33;7.37;;;;;;;;;;759712;184;929598;-67
2021/08/13 08:23:33;;;;;;;13.53;6.67;;;;;;;;;;754584;184;918879;-68
2021/08/13 08:26:00;;;;;;;7.67;5.23;;;;;;;;;;754635;181;919431;-66
2021/08/13 08:28:28;;;;;;;8.50;6.03;;;;;;;;;;758869;184;919801;-68
2021/08/13 08:30:54;;;;;;;6.80;5.60;;;;;;;;;;753628;184;1141302;-66
2021/08/13 08:33:21;;;;;;;9.00;5.63;;;;;;;;;;755177;184;919220;-66
2021/08/13 08:35:48;;;;;;;8.20;6.97;;;;;;;;;;753427;184;919222;-67
2021/08/13 08:38:13;;;;;;;7.60;5.57;;;;;;;;;;758770;184;920612;-67
2021/08/13 08:40:39;;;;;;;6.03;5.40;;;;;;;;;;752800;181;918308;-67
2021/08/13 08:43:05;;;;;;;9.77;6.03;;;;;;;;;;752994;185;919899;-66
2021/08/13 08:45:30;;;;;;;6.53;5.80;;;;;;;;;;759658;184;914854;-68
2021/08/13 08:47:57;;;;;;;11.60;5.33;;;;;;;;;;756667;184;989355;-66
2021/08/13 08:50:23;;;;;;;9.93;6.20;;;;;;;;;;758333;183;913623;-66
2021/08/13 08:52:49;;;;;;;7.50;6.00;;;;;;;;;;761991;183;913105;-68
2021/08/13 08:55:15;;;;;;;11.13;6.33;;;;;;;;;;757166;183;912152;-66
2021/08/13 08:57:41;;;;;;;8.40;5.77;;;;;;;;;;754785;183;916313;-68
2021/08/13 09:00:07;;;;;;;9.50;6.20;;;;;;;;;;755645;183;919926;-65
2021/08/13 09:02:33;;;;;;;9.37;6.37;;;;;;;;;;760325;183;915150;-66
2021/08/13 09:04:59;;;;;;;7.43;5.57;;;;;;;;;;753982;183;919019;-68
2021/08/13 09:07:25;;;;;;;9.50;6.73;;;;;;;;;;753315;182;919372;-67
2021/08/13 09:09:51;;;;;;;8.57;5.90;;;;;;;;;;760792;184;917697;-66
2021/08/13 09:12:16;;;;;;;11.93;6.27;;;;;;;;;;756144;183;918691;-67
2021/08/13 09:14:42;;;;;;;7.18;5.60;;;;;;;;;;755019;184;920401;-67
2021/08/13 09:17:08;;;;;;;8.50;6.07;;;;;;;;;;758511;183;919407;-66
2021/08/13 09:19:46;;;;;;;8.87;5.90;;;;;;;;;;754379;183;919641;-67
2021/08/13 09:22:13;;;;;;;7.47;5.60;;;;;;;;;;756435;184;918659;-68
2021/08/13 09:24:39;;;;;;;6.70;5.45;;;;;;;;;;755144;184;919547;-68
2021/08/13 09:27:10;;;;;;;6.90;5.40;;;;;;;;;;758913;184;918930;-69
2021/08/13 09:29:37;;;;;;;9.50;5.33;;;;;;;;;;759633;183;918404;-70
2021/08/13 09:32:02;;;;;;;7.57;5.53;;;;;;;;;;752741;184;919595;-69
2021/08/13 09:34:28;;;;;;;8.63;5.27;;;;;;;;;;753844;184;919330;-68
2021/08/13 09:36:54;;;;;;;11.50;5.07;;;;;;;;;;759228;184;920520;-68
2021/08/13 09:39:24;;;;;;;6.17;4.93;;;;;;;;;;756353;184;918462;-67
2021/08/13 09:41:50;;;;;;;11.00;5.23;;;;;;;;;;756085;184;919688;-69
2021/08/13 09:44:22;;;;;;;7.50;5.00;;;;;;;;;;751114;184;1386039;-69
2021/08/13 09:46:54;;;;;;;6.60;5.00;;;;;;;;;;754238;184;1054189;-69
2021/08/13 09:49:20;;;;;;;7.70;5.60;;;;;;;;;;754678;184;919180;-68
2021/08/13 09:51:45;;;;;;;22.37;5.90;;;;;;;;;;753209;184;919320;-69
2021/08/13 09:54:11;;;;;;;15.87;5.43;;;;;;;;;;753134;184;918094;-69
2021/08/13 09:56:37;;;;;;;10.70;5.10;;;;;;;;;;761955;181;919049;-68
2021/08/13 09:59:09;;;;;;;6.80;5.90;;;;;;;;;;753445;184;919033;-69
2021/08/13 10:01:35;;;;;;;7.87;5.83;;;;;;;;;;755418;180;918905;-70
2021/08/13 10:04:01;;;;;;;9.67;5.53;;;;;;;;;;760542;184;919310;-69
2021/08/13 10:06:29;;;;;;;5.60;4.47;;;;;;;;;;755979;184;918053;-69
2021/08/13 10:08:53;;;;;;;7.77;5.83;;;;;;;;;;755725;182;919841;-69
2021/08/13 10:11:20;;;;;;;7.80;5.20;;;;;;;;;;754622;185;921763;-68
2021/08/13 10:13:46;;;;;;;7.90;4.97;;;;;;;;;;747624;183;919450;-69
2021/08/13 10:16:12;;;;;;;10.63;5.87;;;;;;;;;;755734;180;918127;-70
2021/08/13 10:18:38;;;;;;;7.37;5.07;;;;;;;;;;754447;181;918405;-70
2021/08/13 10:21:04;;;;;;;11.90;5.90;;;;;;;;;;763346;180;919221;-69
2021/08/13 10:23:30;;;;;;;8.83;5.00;;;;;;;;;;756457;183;919411;-69
2021/08/13 10:25:55;;;;;;;9.35;4.93;;;;;;;;;;755386;182;918210;-68
2021/08/13 10:28:21;;;;;;;7.73;5.80;;;;;;;;;;759175;184;918640;-68
2021/08/13 10:30:47;;;;;;;8.30;6.20;;;;;;;;;;755715;183;919096;-68
2021/08/13 10:33:13;;;;;;;9.10;6.03;;;;;;;;;;755339;183;920371;-70
2021/08/13 10:35:40;;;;;;;8.70;5.77;;;;;;;;;;754066;184;919222;-70
2021/08/13 10:38:06;;;;;;;7.40;5.80;;;;;;;;;;758383;184;917675;-69
2021/08/13 10:40:31;;;;;;;7.50;6.10;;;;;;;;;;753015;184;927445;-69
2021/08/13 10:42:57;;;;;;;8.23;6.40;;;;;;;;;;751846;184;918701;-70
2021/08/13 10:45:23;;;;;;;8.27;6.30;;;;;;;;;;761557;181;712827;-70
2021/08/13 10:47:50;;;;;;;9.00;5.97;;;;;;;;;;754861;184;918900;-69
2021/08/13 10:50:16;;;;;;;8.15;6.28;;;;;;;;;;755945;184;918666;-70
2021/08/13 10:52:41;;;;;;;13.50;6.23;;;;;;;;;;760851;184;918747;-72
2021/08/13 10:55:08;;;;;;;7.97;6.50;;;;;;;;;;757983;184;917110;-71
2021/08/13 10:57:39;;;;;;;8.13;6.53;;;;;;;;;;753670;184;920048;-70
2021/08/13 11:00:06;;;;;;;9.30;6.50;;;;;;;;;;753192;184;919142;-71
2021/08/13 11:02:31;;;;;;;8.93;5.70;;;;;;;;;;760054;184;919443;-71
2021/08/13 11:04:57;;;;;;;12.60;5.93;;;;;;;;;;755409;184;917488;-70
2021/08/13 11:07:29;;;;;;;8.87;6.50;;;;;;;;;;756656;184;918106;-71
2021/08/13 11:09:55;;;;;;;11.60;5.67;;;;;;;;;;757955;184;625535;-69
2021/08/13 11:12:20;;;;;;;6.73;5.47;;;;;;;;;;759137;181;919281;-70
2021/08/13 11:14:48;;;;;;;9.93;6.60;;;;;;;;;;755645;184;919366;-68
2021/08/13 11:17:19;;;;;;;7.17;5.87;;;;;;;;;;754695;184;919105;-70
2021/08/13 11:19:51;;;;;;;6.77;5.60;;;;;;;;;;762037;181;919049;-68
2021/08/13 11:22:23;;;;;;;6.67;4.70;;;;;;;;;;758383;183;919450;-70
2021/08/13 11:24:49;;;;;;;8.70;5.40;;;;;;;;;;754524;183;918330;-72
2021/08/13 11:27:15;;;;;;;11.63;6.17;;;;;;;;;;754429;183;942780;-71
2021/08/13 11:29:43;;;;;;;12.60;6.43;;;;;;;;;;758733;184;918416;-72
2021/08/13 11:32:08;;;;;;;9.67;6.83;;;;;;;;;;756893;184;918624;-72
2021/08/13 11:34:39;;;;;;;9.87;6.07;;;;;;;;;;754708;183;919482;-69
2021/08/13 11:37:05;;;;;;;15.00;6.70;;;;;;;;;;754970;183;917909;-72
2021/08/13 11:39:34;;;;;;;10.20;6.30;;;;;;;;;;759602;184;929139;-70
2021/08/13 11:42:05;;;;;;;8.47;5.97;;;;;;;;;;755450;184;921397;-70
2021/08/13 11:44:30;;;;;;;10.13;6.50;;;;;;;;;;756119;183;942361;-70
2021/08/13 11:46:56;;;;;;;10.00;5.50;;;;;;;;;;753823;182;921647;-70
2021/08/13 11:49:23;;;;;;;15.57;6.77;;;;;;;;;;758197;184;918840;-70
2021/08/13 11:51:49;;;;;;;9.57;6.10;;;;;;;;;;754998;184;918521;-71
2021/08/13 11:54:21;;;;;;;8.07;5.70;;;;;;;;;;757389;184;918597;-71
2021/08/13 11:56:46;;;;;;;17.83;6.60;;;;;;;;;;755757;183;952773;-68
2021/08/13 11:59:12;;;;;;;12.30;6.67;;;;;;;;;;754090;184;920694;-71
2021/08/13 12:01:44;;;;;;;6.90;5.53;;;;;;;;;;753038;184;936235;-71
2021/08/13 12:04:15;;;;;;;10.82;6.20;;;;;;;;;;751950;184;1022929;-70
2021/08/13 12:06:41;;;;;;;13.25;6.05;;;;;;;;;;757832;181;919400;-68
2021/08/13 12:09:07;;;;;;;11.93;6.03;;;;;;;;;;753890;184;918868;-68
2021/08/13 12:11:33;;;;;;;12.60;7.10;;;;;;;;;;752147;182;920338;-69
2021/08/13 12:13:59;;;;;;;7.62;6.35;;;;;;;;;;754038;183;926723;-69
2021/08/13 12:16:24;;;;;;;8.70;5.50;;;;;;;;;;760933;184;919702;-68
2021/08/13 12:18:50;;;;;;;7.27;5.77;;;;;;;;;;756148;184;919002;-69
2021/08/13 12:21:19;;;;;;;6.37;5.47;;;;;;;;;;753146;182;915906;-70
2021/08/13 12:23:42;;;;;;;8.13;6.20;;;;;;;;;;760456;182;918669;-69
2021/08/13 12:26:08;;;;;;;7.63;5.30;;;;;;;;;;750202;184;916835;-69
2021/08/13 12:28:34;;;;;;;7.83;6.40;;;;;;;;;;753446;183;918893;-70
2021/08/13 12:31:03;;;;;;;8.10;5.70;;;;;;;;;;760412;184;917205;-70
2021/08/13 12:33:29;;;;;;;9.60;5.30;;;;;;;;;;757594;184;938066;-70
2021/08/13 12:35:55;;;;;;;8.40;5.87;;;;;;;;;;755534;183;934983;-71
2021/08/13 12:38:27;;;;;;;8.47;5.90;;;;;;;;;;759806;183;694134;-69
2021/08/13 12:40:54;;;;;;;8.97;6.27;;;;;;;;;;760577;183;906129;-71
2021/08/13 12:43:18;;;;;;;11.23;6.30;;;;;;;;;;754449;185;918569;-69
2021/08/13 12:45:44;;;;;;;6.90;6.00;;;;;;;;;;754097;184;919658;-72
2021/08/13 12:48:10;;;;;;;8.13;5.90;;;;;;;;;;758922;184;658990;-69
2021/08/13 12:50:36;;;;;;;7.60;5.87;;;;;;;;;;760007;182;918444;-71
2021/08/13 12:53:06;;;;;;;10.57;5.70;;;;;;;;;;755475;183;919130;-69
2021/08/13 12:55:38;;;;;;;8.17;5.77;;;;;;;;;;753378;183;919370;-70
2021/08/13 12:58:04;;;;;;;6.57;5.70;;;;;;;;;;755941;183;920379;-69
2021/08/13 13:00:30;;;;;;;7.30;6.23;;;;;;;;;;753587;181;918825;-71
2021/08/13 13:03:11;;;;;;;6.70;5.50;;;;;;;;;;753324;184;919593;-70
2021/08/13 13:05:36;;;;;;;8.30;6.00;;;;;;;;;;754437;183;919590;-71
2021/08/13 13:08:05;;;;;;;8.90;5.90;;;;;;;;;;747653;184;919288;-69
2021/08/13 13:10:28;;;;;;;14.90;6.80;;;;;;;;;;754146;184;936458;-72
2021/08/13 13:12:54;;;;;;;8.43;6.07;;;;;;;;;;756629;184;917872;-71
2021/08/13 13:15:27;;;;;;;7.53;5.90;;;;;;;;;;751584;184;919403;-71
2021/08/13 13:18:00;;;;;;;11.30;6.80;;;;;;;;;;759464;181;917422;-71
2021/08/13 13:20:32;;;;;;;6.07;5.47;;;;;;;;;;755046;184;949292;-70
2021/08/13 13:23:13;;;;;;;7.60;5.87;;;;;;;;;;753798;181;1020455;-67
2021/08/13 13:25:41;;;;;;;12.23;6.23;;;;;;;;;;753818;181;979307;-68
2021/08/13 13:28:07;;;;;;;7.00;6.03;;;;;;;;;;753448;182;924518;-71
2021/08/13 13:30:47;;;;;;;11.32;6.18;;;;;;;;;;753432;184;918732;-71
2021/08/13 13:33:13;;;;;;;9.67;6.47;;;;;;;;;;758903;180;920615;-67
2021/08/13 13:35:41;;;;;;;8.90;6.17;;;;;;;;;;756629;181;908235;-69
2021/08/13 13:38:07;;;;;;;10.43;5.77;;;;;;;;;;756022;184;918938;-68
2021/08/13 13:40:33;;;;;;;9.90;6.00;;;;;;;;;;756691;182;918878;-70
2021/08/13 13:42:59;;;;;;;8.77;7.10;;;;;;;;;;762743;182;713355;-69
2021/08/13 13:45:25;;;;;;;7.47;5.50;;;;;;;;;;757456;183;920254;-69
2021/08/13 13:47:50;;;;;;;11.52;6.30;;;;;;;;;;753740;184;1172318;-71
2021/08/13 13:50:16;;;;;;;9.20;6.00;;;;;;;;;;763264;183;918918;-70
2021/08/13 13:52:42;;;;;;;6.70;5.70;;;;;;;;;;756114;181;918178;-69
2021/08/13 13:55:08;;;;;;;7.00;6.20;;;;;;;;;;755070;184;919592;-70
2021/08/13 13:57:35;;;;;;;9.83;5.63;;;;;;;;;;754381;183;919578;-68
2021/08/13 14:00:00;;;;;;;17.67;6.50;;;;;;;;;;759800;183;920760;-69
2021/08/13 14:02:26;;;;;;;12.97;6.83;;;;;;;;;;753518;183;918161;-70
2021/08/13 14:04:52;;;;;;;10.73;5.47;;;;;;;;;;753256;183;920665;-71
2021/08/13 14:07:17;;;;;;;7.37;5.73;;;;;;;;;;760283;183;924028;-70
2021/08/13 14:09:43;;;;;;;9.20;5.40;;;;;;;;;;757407;183;919464;-70